Time;durP1;ratioP1;P1;durP2;ratioP2;P2;SDS_P1;SDS_P2;PMS_P1;PMS_P2;Temp;Humidity;BMP_temperature;BMP_pressure;BME280_temperature;BME280_humidity;BME280_pressure;Samples;Min_cycle;Max_cycle;Signal;HPM_P1;HPM_P2
2023/04/13 00:00:59;;;;;;;2.00;1.20;;;11.40;37.90;;;;;;5011704;28;20428;-73
2023/04/13 00:03:26;;;;;;;1.90;1.10;;;11.60;36.00;;;;;;5012033;28;20284;-71
2023/04/13 00:05:52;;;;;;;2.00;1.20;;;12.10;37.20;;;;;;5013241;28;20470;-72
2023/04/13 00:08:21;;;;;;;1.90;1.10;;;12.00;35.60;;;;;;5012921;28;20945;-73
2023/04/13 00:10:47;;;;;;;2.00;1.20;;;11.80;36.00;;;;;;5011707;28;20412;-72
2023/04/13 00:13:13;;;;;;;1.90;1.20;;;11.90;35.40;;;;;;5010228;28;20454;-72
2023/04/13 00:15:42;;;;;;;1.90;1.10;;;11.70;35.40;;;;;;5012911;28;20495;-73
2023/04/13 00:18:09;;;;;;;2.00;1.20;;;12.00;34.40;;;;;;5011895;28;21050;-73
2023/04/13 00:20:35;;;;;;;1.90;1.10;;;12.20;34.50;;;;;;5012831;28;20503;-73
2023/04/13 00:23:01;;;;;;;1.90;1.10;;;11.70;38.00;;;;;;5014623;28;20447;-75
2023/04/13 00:25:28;;;;;;;1.90;1.10;;;11.50;36.40;;;;;;5012903;28;20420;-73
2023/04/13 00:27:53;;;;;;;1.90;1.10;;;11.80;36.00;;;;;;5012381;28;20181;-72
2023/04/13 00:30:20;;;;;;;2.00;1.20;;;11.90;34.50;;;;;;5004514;28;20420;-73
2023/04/13 00:32:46;;;;;;;2.00;1.23;;;12.30;34.50;;;;;;5009052;28;20173;-70
2023/04/13 00:35:17;;;;;;;1.90;1.20;;;11.80;35.60;;;;;;5011256;28;20486;-72
2023/04/13 00:37:45;;;;;;;1.90;1.10;;;11.50;38.30;;;;;;5012763;28;20451;-73
2023/04/13 00:40:12;;;;;;;1.90;1.10;;;11.80;36.90;;;;;;5012745;28;20487;-73
2023/04/13 00:42:37;;;;;;;2.00;1.20;;;11.80;38.10;;;;;;5011779;28;20424;-72
2023/04/13 00:45:03;;;;;;;2.07;1.30;;;11.90;36.70;;;;;;5007757;28;20448;-73
2023/04/13 00:47:33;;;;;;;1.90;1.10;;;11.90;36.90;;;;;;5012076;28;20196;-73
2023/04/13 00:50:05;;;;;;;1.90;1.17;;;11.90;36.20;;;;;;5012805;28;21548;-74
2023/04/13 00:52:33;;;;;;;1.90;1.20;;;11.60;35.90;;;;;;5012358;28;20412;-70
2023/04/13 00:55:01;;;;;;;1.90;1.23;;;11.70;34.20;;;;;;5010513;28;20486;-73
2023/04/13 00:57:27;;;;;;;2.00;1.30;;;11.60;33.80;;;;;;5026977;22;20470;-67
2023/04/13 00:59:53;;;;;;;1.90;1.20;;;11.00;33.30;;;;;;5028987;28;20835;-67
2023/04/13 01:02:23;;;;;;;2.00;1.30;;;12.00;32.50;;;;;;5031583;28;20985;-69
2023/04/13 01:04:49;;;;;;;1.90;1.20;;;12.70;33.30;;;;;;5030677;28;20438;-67
2023/04/13 01:07:36;;;;;;;1.97;1.20;;;12.80;30.70;;;;;;5027041;28;20433;-69
2023/04/13 01:10:22;;;;;;;1.90;1.20;;;12.20;31.60;;;;;;5021719;28;20440;-66
2023/04/13 01:13:11;;;;;;;2.00;1.30;;;12.30;32.10;;;;;;5027022;28;20419;-67
2023/04/13 01:15:41;;;;;;;1.90;1.20;;;12.10;33.60;;;;;;5010095;28;20428;-66
2023/04/13 01:18:09;;;;;;;1.90;1.10;;;12.00;32.40;;;;;;5010182;28;20468;-67
2023/04/13 01:20:42;;;;;;;1.80;1.10;;;12.30;32.40;;;;;;5003380;28;20416;-66
2023/04/13 01:23:17;;;;;;;1.90;1.20;;;12.30;32.70;;;;;;5011627;28;20204;-67
2023/04/13 01:25:50;;;;;;;1.90;1.20;;;12.10;32.80;;;;;;5010984;28;20527;-67
2023/04/13 01:28:18;;;;;;;2.30;1.47;;;12.60;32.90;;;;;;5008984;28;20895;-66
2023/04/13 01:30:45;;;;;;;1.80;1.10;;;12.10;33.30;;;;;;5004306;28;20420;-67
2023/04/13 01:33:12;;;;;;;1.80;1.10;;;12.40;34.60;;;;;;5010706;28;20189;-67
2023/04/13 01:35:38;;;;;;;2.00;1.27;;;11.90;35.80;;;;;;5009277;28;20462;-66
2023/04/13 01:38:05;;;;;;;1.90;1.20;;;12.10;33.20;;;;;;5009918;28;20994;-67
2023/04/13 01:40:35;;;;;;;1.90;1.10;;;12.10;36.00;;;;;;5009591;28;20444;-66
2023/04/13 01:43:01;;;;;;;1.90;1.10;;;12.00;34.20;;;;;;5011360;28;20415;-66
2023/04/13 01:45:30;;;;;;;2.00;1.20;;;11.30;33.60;;;;;;5012782;28;20431;-65
2023/04/13 01:48:13;;;;;;;2.00;1.30;;;11.20;33.50;;;;;;5011643;28;20459;-66
2023/04/13 01:50:42;;;;;;;1.90;1.10;;;11.30;33.60;;;;;;5013757;28;20188;-66
2023/04/13 01:53:12;;;;;;;2.00;1.20;;;11.20;33.40;;;;;;5015270;28;20431;-66
2023/04/13 01:55:40;;;;;;;2.00;1.20;;;11.70;33.90;;;;;;5014573;28;20431;-67
2023/04/13 01:58:09;;;;;;;1.90;1.20;;;11.50;33.70;;;;;;5013410;28;20474;-67
2023/04/13 02:00:36;;;;;;;1.90;1.08;;;11.40;34.60;;;;;;5012977;28;20428;-67
2023/04/13 02:03:03;;;;;;;1.90;1.10;;;11.70;34.40;;;;;;5015165;28;20196;-67
2023/04/13 02:05:30;;;;;;;1.90;1.10;;;11.60;34.50;;;;;;5014565;28;20432;-67
2023/04/13 02:07:56;;;;;;;1.90;1.10;;;11.40;35.50;;;;;;5014033;28;20586;-65
2023/04/13 02:10:21;;;;;;;1.90;1.10;;;11.10;35.00;;;;;;5013369;28;20527;-67
2023/04/13 02:12:47;;;;;;;2.00;1.20;;;10.90;36.30;;;;;;5006284;28;20699;-67
2023/04/13 02:15:13;;;;;;;2.10;1.30;;;10.90;37.70;;;;;;5011637;28;20188;-67
2023/04/13 02:17:40;;;;;;;2.00;1.20;;;10.50;38.40;;;;;;5014636;28;20197;-67
2023/04/13 02:20:12;;;;;;;2.10;1.33;;;10.90;38.40;;;;;;5014238;28;20531;-66
2023/04/13 02:22:40;;;;;;;2.00;1.10;;;10.60;36.50;;;;;;5010887;28;20435;-66
2023/04/13 02:25:07;;;;;;;2.03;1.20;;;11.10;36.80;;;;;;5013712;28;20533;-67
2023/04/13 02:27:34;;;;;;;2.00;1.10;;;11.10;36.80;;;;;;5013782;28;20710;-66
2023/04/13 02:30:01;;;;;;;2.00;1.20;;;10.50;38.20;;;;;;5013739;28;20185;-67
2023/04/13 02:32:28;;;;;;;2.00;1.20;;;10.80;37.40;;;;;;5010853;28;20192;-66
2023/04/13 02:34:54;;;;;;;1.98;1.20;;;10.70;37.20;;;;;;5013303;28;20181;-67
2023/04/13 02:37:19;;;;;;;2.00;1.20;;;10.80;37.30;;;;;;5014546;28;20220;-66
2023/04/13 02:39:45;;;;;;;1.90;1.10;;;10.30;38.70;;;;;;5014319;28;20204;-67
2023/04/13 02:42:11;;;;;;;1.90;1.17;;;10.30;40.50;;;;;;5013322;28;20177;-66
2023/04/13 02:44:37;;;;;;;1.90;1.10;;;10.60;37.80;;;;;;5005767;28;20188;-67
2023/04/13 02:47:03;;;;;;;1.90;1.10;;;10.90;37.50;;;;;;5012819;28;20181;-66
2023/04/13 02:49:29;;;;;;;1.95;1.10;;;11.00;36.30;;;;;;5019538;28;20189;-66
2023/04/13 02:51:54;;;;;;;1.93;1.10;;;10.90;36.10;;;;;;5014354;28;20596;-67
2023/04/13 02:54:20;;;;;;;1.90;1.10;;;10.90;36.10;;;;;;5012129;28;20184;-67
2023/04/13 02:56:46;;;;;;;1.90;1.10;;;10.60;36.50;;;;;;5005816;28;20199;-68
2023/04/13 02:59:13;;;;;;;1.90;1.10;;;10.60;37.30;;;;;;5011809;28;20219;-67
2023/04/13 03:01:40;;;;;;;2.00;1.20;;;10.70;38.00;;;;;;5014083;28;20200;-67
2023/04/13 03:04:07;;;;;;;2.05;1.25;;;10.80;37.30;;;;;;5012355;28;20209;-67
2023/04/13 03:06:32;;;;;;;2.00;1.20;;;10.80;36.60;;;;;;5001044;28;20573;-66
2023/04/13 03:08:58;;;;;;;1.90;1.10;;;10.90;37.30;;;;;;5014301;28;20205;-66
2023/04/13 03:11:25;;;;;;;1.90;1.20;;;10.90;37.20;;;;;;5013080;28;20173;-67
2023/04/13 03:13:52;;;;;;;2.00;1.10;;;11.10;33.40;;;;;;5012860;28;20176;-65
2023/04/13 03:16:19;;;;;;;1.90;1.10;;;11.20;33.70;;;;;;5012301;28;20235;-65
2023/04/13 03:18:44;;;;;;;1.90;1.10;;;11.40;33.60;;;;;;5010909;28;20214;-66
2023/04/13 03:21:11;;;;;;;2.00;1.20;;;11.10;33.90;;;;;;5012424;28;20180;-65
2023/04/13 03:23:37;;;;;;;1.90;1.10;;;11.00;36.30;;;;;;5009998;28;20648;-65
2023/04/13 03:26:03;;;;;;;1.90;1.20;;;11.20;35.40;;;;;;5008414;28;20204;-70
2023/04/13 03:28:28;;;;;;;2.00;1.17;;;10.90;34.70;;;;;;5012799;28;20213;-66
2023/04/13 03:30:54;;;;;;;1.90;1.10;;;10.50;35.60;;;;;;5013253;28;20640;-66
2023/04/13 03:33:20;;;;;;;1.90;1.10;;;10.80;35.50;;;;;;5012796;28;20235;-70
2023/04/13 03:35:46;;;;;;;2.00;1.20;;;11.30;35.60;;;;;;5013008;28;20559;-65
2023/04/13 03:38:12;;;;;;;2.00;1.20;;;11.40;34.70;;;;;;5012191;28;20467;-69
2023/04/13 03:40:37;;;;;;;1.90;1.20;;;10.90;35.60;;;;;;5012704;28;20809;-65
2023/04/13 03:43:03;;;;;;;2.00;1.20;;;10.60;36.20;;;;;;5009693;28;20185;-65
2023/04/13 03:45:29;;;;;;;2.00;1.30;;;10.40;37.90;;;;;;5018224;28;20229;-65
2023/04/13 03:47:54;;;;;;;1.90;1.10;;;10.70;35.10;;;;;;5012914;28;20464;-66
2023/04/13 03:50:20;;;;;;;1.97;1.20;;;11.00;34.30;;;;;;5013430;28;20194;-70
2023/04/13 03:52:46;;;;;;;2.00;1.20;;;11.20;33.40;;;;;;5012288;28;20189;-65
2023/04/13 03:55:12;;;;;;;1.90;1.10;;;10.90;32.40;;;;;;5011417;28;20604;-66
2023/04/13 03:57:38;;;;;;;1.90;1.10;;;11.10;31.30;;;;;;5004258;28;20240;-65
2023/04/13 04:00:06;;;;;;;1.80;1.10;;;10.90;33.20;;;;;;5013295;28;20455;-65
2023/04/13 04:02:31;;;;;;;1.97;1.20;;;11.10;30.80;;;;;;5010797;28;20546;-66
2023/04/13 04:04:58;;;;;;;1.90;1.10;;;11.20;28.80;;;;;;5026954;28;20527;-65
2023/04/13 04:07:24;;;;;;;1.90;1.10;;;10.40;29.90;;;;;;5011081;28;20200;-65
2023/04/13 04:09:50;;;;;;;2.20;1.50;;;9.60;31.10;;;;;;5009388;28;20450;-65
2023/04/13 04:12:15;;;;;;;1.90;1.20;;;10.00;30.20;;;;;;5012848;28;20181;-66
2023/04/13 04:14:41;;;;;;;1.93;1.20;;;10.00;29.40;;;;;;5011929;28;20652;-66
2023/04/13 04:17:06;;;;;;;2.00;1.20;;;9.90;29.20;;;;;;5011907;28;20672;-70
2023/04/13 04:19:32;;;;;;;1.97;1.20;;;10.20;29.00;;;;;;5012271;28;20189;-65
2023/04/13 04:22:02;;;;;;;2.00;1.20;;;10.60;28.50;;;;;;5011616;28;20185;-65
2023/04/13 04:24:28;;;;;;;2.00;1.20;;;10.50;28.30;;;;;;5022568;28;20181;-65
2023/04/13 04:26:54;;;;;;;1.90;1.10;;;10.50;28.10;;;;;;5011412;28;20452;-70
2023/04/13 04:29:21;;;;;;;2.00;1.20;;;10.80;29.70;;;;;;5010816;28;20243;-66
2023/04/13 04:31:51;;;;;;;2.00;1.20;;;10.80;28.00;;;;;;5012819;28;20586;-65
2023/04/13 04:34:18;;;;;;;1.90;1.20;;;10.10;28.80;;;;;;5011319;28;20423;-70
2023/04/13 04:36:50;;;;;;;1.90;1.10;;;10.80;30.10;;;;;;5012495;28;20791;-70
2023/04/13 04:39:21;;;;;;;2.00;1.20;;;10.60;28.10;;;;;;5009899;28;20236;-71
2023/04/13 04:41:47;;;;;;;2.00;1.20;;;10.90;27.20;;;;;;5012611;28;20196;-65
2023/04/13 04:44:15;;;;;;;1.90;1.15;;;10.00;28.10;;;;;;5027390;28;20181;-64
2023/04/13 04:46:42;;;;;;;1.90;1.20;;;10.40;28.20;;;;;;5011263;28;20165;-64
2023/04/13 04:49:08;;;;;;;1.90;1.10;;;10.60;27.30;;;;;;5008565;28;20283;-68
2023/04/13 04:51:35;;;;;;;1.90;1.10;;;10.90;27.20;;;;;;5010083;28;20443;-68
2023/04/13 04:54:02;;;;;;;2.00;1.27;;;11.10;26.50;;;;;;5011965;28;20235;-65
2023/04/13 04:56:28;;;;;;;2.00;1.15;;;11.20;26.90;;;;;;5027109;28;20176;-69
2023/04/13 04:58:53;;;;;;;2.10;1.30;;;11.00;28.60;;;;;;5010198;28;20233;-64
2023/04/13 05:01:25;;;;;;;1.90;1.10;;;11.10;26.90;;;;;;5010574;28;20189;-65
2023/04/13 05:03:51;;;;;;;1.83;1.10;;;10.90;27.00;;;;;;5011765;28;20543;-65
2023/04/13 05:06:17;;;;;;;1.90;1.10;;;10.90;28.60;;;;;;5012197;28;20215;-65
2023/04/13 05:08:43;;;;;;;1.90;1.10;;;10.90;27.00;;;;;;5012136;28;20440;-65
2023/04/13 05:11:09;;;;;;;2.10;1.20;;;11.10;27.90;;;;;;5004170;28;20680;-73
2023/04/13 05:13:35;;;;;;;2.00;1.20;;;11.40;26.40;;;;;;5007472;28;20443;-73
2023/04/13 05:16:00;;;;;;;2.10;1.30;;;11.80;27.10;;;;;;5011179;28;20436;-73
2023/04/13 05:18:30;;;;;;;1.90;1.10;;;11.50;26.00;;;;;;5011626;28;20255;-74
2023/04/13 05:20:56;;;;;;;1.87;1.10;;;11.40;27.30;;;;;;5026867;28;20224;-74
2023/04/13 05:23:22;;;;;;;1.90;1.10;;;11.80;27.20;;;;;;5010828;28;20428;-74
2023/04/13 05:25:47;;;;;;;1.90;1.10;;;11.90;27.20;;;;;;5007321;28;20181;-68
2023/04/13 05:28:13;;;;;;;1.90;1.10;;;12.00;28.10;;;;;;5010684;28;20587;-67
2023/04/13 05:30:39;;;;;;;2.00;1.20;;;12.30;29.60;;;;;;5006079;28;20182;-70
2023/04/13 05:33:06;;;;;;;2.00;1.20;;;11.90;25.80;;;;;;5010542;28;20581;-67
2023/04/13 05:35:32;;;;;;;2.00;1.20;;;12.00;25.20;;;;;;5007341;28;20185;-67
2023/04/13 05:38:00;;;;;;;2.00;1.20;;;12.00;26.10;;;;;;5011364;28;20702;-66
2023/04/13 05:40:26;;;;;;;1.90;1.20;;;11.80;26.40;;;;;;5008403;28;20224;-67
2023/04/13 05:42:52;;;;;;;1.90;1.10;;;11.90;26.30;;;;;;5000891;28;20446;-67
2023/04/13 05:45:17;;;;;;;2.10;1.40;;;11.90;27.40;;;;;;5007796;28;20656;-67
2023/04/13 05:47:44;;;;;;;2.00;1.20;;;12.00;28.00;;;;;;5010769;28;20347;-67
2023/04/13 05:50:10;;;;;;;2.00;1.17;;;12.00;29.00;;;;;;5009206;28;20185;-67
2023/04/13 05:52:35;;;;;;;1.97;1.20;;;12.10;26.90;;;;;;5009177;28;20444;-68
2023/04/13 05:55:01;;;;;;;1.90;1.10;;;12.30;26.50;;;;;;4999764;28;20799;-71
2023/04/13 05:57:27;;;;;;;1.90;1.13;;;11.90;25.80;;;;;;5002321;28;20219;-67
2023/04/13 05:59:53;;;;;;;1.90;1.13;;;12.10;25.50;;;;;;5003303;28;20257;-67
2023/04/13 06:02:19;;;;;;;2.00;1.20;;;12.50;26.60;;;;;;5011284;28;20255;-67
2023/04/13 06:04:45;;;;;;;1.97;1.20;;;12.00;25.60;;;;;;4999543;28;20424;-67
2023/04/13 06:07:13;;;;;;;2.00;1.20;;;11.90;25.80;;;;;;5002680;28;20934;-67
2023/04/13 06:09:39;;;;;;;1.90;1.10;;;12.20;29.90;;;;;;5010944;28;20264;-68
2023/04/13 06:12:04;;;;;;;2.07;1.30;;;12.00;26.90;;;;;;5011340;28;20558;-68
2023/04/13 06:14:31;;;;;;;2.10;1.40;;;12.30;26.40;;;;;;5010282;28;20177;-69
2023/04/13 06:16:56;;;;;;;1.90;1.20;;;12.30;24.90;;;;;;5005051;28;20616;-69
2023/04/13 06:19:23;;;;;;;2.00;1.30;;;12.30;27.10;;;;;;5008591;28;20444;-69
2023/04/13 06:21:49;;;;;;;2.23;1.33;;;12.30;26.70;;;;;;5011513;28;20531;-68
2023/04/13 06:24:14;;;;;;;2.00;1.20;;;12.40;25.70;;;;;;5010721;28;20973;-69
2023/04/13 06:26:40;;;;;;;2.00;1.23;;;12.80;25.80;;;;;;5011430;28;20235;-69
2023/04/13 06:29:06;;;;;;;2.00;1.30;;;12.40;25.70;;;;;;5007269;28;20200;-69
2023/04/13 06:31:31;;;;;;;2.00;1.20;;;12.40;25.10;;;;;;5007639;28;20185;-69
2023/04/13 06:33:57;;;;;;;2.00;1.30;;;11.50;25.80;;;;;;5006527;28;20550;-70
2023/04/13 06:36:23;;;;;;;1.90;1.20;;;13.60;27.50;;;;;;5009111;28;20324;-69
2023/04/13 06:38:48;;;;;;;1.90;1.10;;;11.80;25.40;;;;;;5013340;28;20463;-68
2023/04/13 06:41:14;;;;;;;2.00;1.20;;;12.00;25.10;;;;;;5013305;28;20181;-69
2023/04/13 06:43:40;;;;;;;2.00;1.17;;;11.60;26.20;;;;;;5011742;28;20178;-68
2023/04/13 06:46:06;;;;;;;2.00;1.20;;;11.60;25.60;;;;;;5013803;28;20177;-69
2023/04/13 06:48:32;;;;;;;2.00;1.20;;;11.50;26.00;;;;;;5011586;28;20203;-68
2023/04/13 06:50:58;;;;;;;1.90;1.10;;;11.40;26.10;;;;;;5013392;28;20486;-68
2023/04/13 06:53:24;;;;;;;1.90;1.10;;;11.40;27.10;;;;;;5011648;28;20180;-68
2023/04/13 06:55:50;;;;;;;2.27;1.20;;;11.80;27.30;;;;;;5027567;28;20428;-68
2023/04/13 06:58:15;;;;;;;2.23;1.57;;;12.30;25.80;;;;;;5035349;23;20397;-73
2023/04/13 07:00:41;;;;;;;2.00;1.20;;;11.50;26.10;;;;;;5031325;28;20180;-72
2023/04/13 07:03:07;;;;;;;2.00;1.20;;;11.10;27.00;;;;;;5033402;28;20173;-72
2023/04/13 07:05:32;;;;;;;2.00;1.23;;;11.00;27.50;;;;;;5030776;28;20327;-72
2023/04/13 07:07:58;;;;;;;2.00;1.30;;;11.00;27.50;;;;;;5033898;28;20180;-73
2023/04/13 07:10:24;;;;;;;1.90;1.17;;;11.10;27.30;;;;;;5021834;28;20215;-72
2023/04/13 07:12:50;;;;;;;1.90;1.13;;;11.80;27.30;;;;;;5026554;28;20169;-74
2023/04/13 07:15:15;;;;;;;2.00;1.20;;;11.60;26.80;;;;;;5033379;28;20410;-72
2023/04/13 07:17:41;;;;;;;2.00;1.20;;;11.80;26.70;;;;;;5022748;28;20452;-74
2023/04/13 07:20:08;;;;;;;1.93;1.20;;;11.70;26.30;;;;;;4997000;28;20210;-72
2023/04/13 07:22:34;;;;;;;2.00;1.27;;;11.70;27.00;;;;;;5001906;28;20446;-72
2023/04/13 07:25:00;;;;;;;2.17;1.50;;;11.80;28.50;;;;;;4999741;28;20428;-72
2023/04/13 07:27:26;;;;;;;2.00;1.27;;;11.50;29.30;;;;;;5010559;28;20440;-77
2023/04/13 07:29:52;;;;;;;1.90;1.20;;;12.10;30.00;;;;;;5006090;28;20448;-76
2023/04/13 07:32:18;;;;;;;1.90;1.20;;;11.80;29.50;;;;;;5003922;28;21180;-73
2023/04/13 07:34:44;;;;;;;2.07;1.40;;;12.40;29.40;;;;;;5004316;28;20446;-73
2023/04/13 07:37:10;;;;;;;1.80;1.10;;;12.20;29.90;;;;;;5007027;28;20472;-73
2023/04/13 07:39:35;;;;;;;1.90;1.20;;;12.30;29.70;;;;;;5015144;28;20204;-73
2023/04/13 07:42:01;;;;;;;1.80;1.10;;;12.40;28.40;;;;;;5028672;28;20184;-73
2023/04/13 07:44:27;;;;;;;1.97;1.30;;;12.40;28.80;;;;;;5032852;28;20247;-73
2023/04/13 07:46:55;;;;;;;2.00;1.30;;;12.80;29.20;;;;;;5033474;28;20161;-73
2023/04/13 07:49:22;;;;;;;1.90;1.20;;;12.90;29.10;;;;;;5029638;28;20225;-71
2023/04/13 07:51:52;;;;;;;1.90;1.20;;;13.60;27.20;;;;;;5018922;28;20439;-71
2023/04/13 07:54:18;;;;;;;2.03;1.30;;;12.90;27.50;;;;;;5024659;28;20800;-73
2023/04/13 07:56:43;;;;;;;1.97;1.20;;;13.00;28.00;;;;;;5032971;28;20598;-73
2023/04/13 07:59:09;;;;;;;2.00;1.20;;;12.10;26.30;;;;;;5032940;28;20261;-73
2023/04/13 08:01:35;;;;;;;2.00;1.20;;;12.60;26.20;;;;;;5024291;28;20178;-73
2023/04/13 08:04:00;;;;;;;1.90;1.20;;;12.30;26.50;;;;;;5024479;28;20176;-72
2023/04/13 08:06:26;;;;;;;3.90;1.50;;;12.70;25.00;;;;;;5020165;28;20637;-73
2023/04/13 08:08:52;;;;;;;2.60;2.00;;;13.10;26.80;;;;;;5025586;28;20201;-73
2023/04/13 08:11:18;;;;;;;2.00;1.30;;;13.10;25.50;;;;;;5029450;28;20176;-73
2023/04/13 08:13:44;;;;;;;1.90;1.20;;;12.60;24.70;;;;;;5032715;28;20970;-73
2023/04/13 08:16:10;;;;;;;1.90;1.13;;;12.20;26.50;;;;;;5023531;28;20186;-73
2023/04/13 08:18:36;;;;;;;2.03;1.30;;;12.80;25.60;;;;;;5023834;28;20341;-73
2023/04/13 08:21:09;;;;;;;2.00;1.40;;;12.20;25.30;;;;;;5027335;28;20462;-73
2023/04/13 08:23:36;;;;;;;1.97;1.20;;;12.20;25.50;;;;;;5032515;28;20408;-72
2023/04/13 08:26:02;;;;;;;2.00;1.20;;;12.20;25.90;;;;;;5032498;28;20415;-73
2023/04/13 08:28:28;;;;;;;2.30;1.40;;;12.20;25.20;;;;;;5007557;28;20960;-73
2023/04/13 08:30:53;;;;;;;1.90;1.13;;;12.20;26.00;;;;;;5024353;28;20412;-72
2023/04/13 08:33:19;;;;;;;1.90;1.20;;;12.50;25.40;;;;;;5032087;28;20182;-73
2023/04/13 08:35:45;;;;;;;1.80;1.10;;;12.70;25.00;;;;;;5032732;28;20181;-73
2023/04/13 08:38:11;;;;;;;1.90;1.20;;;13.00;25.20;;;;;;5026056;28;20826;-73
2023/04/13 08:40:39;;;;;;;2.10;1.40;;;13.20;24.80;;;;;;5012079;28;20182;-73
2023/04/13 08:43:05;;;;;;;1.83;1.10;;;12.70;26.30;;;;;;5020817;28;20459;-73
2023/04/13 08:45:31;;;;;;;2.00;1.23;;;13.10;25.50;;;;;;5031080;28;20464;-73
2023/04/13 08:47:57;;;;;;;1.87;1.10;;;13.40;25.00;;;;;;5026928;28;20764;-73
2023/04/13 08:50:26;;;;;;;1.87;1.10;;;13.70;25.50;;;;;;5021705;28;20180;-71
2023/04/13 08:52:53;;;;;;;1.93;1.20;;;13.80;23.30;;;;;;5025398;28;20416;-71
2023/04/13 08:55:18;;;;;;;1.90;1.20;;;13.80;24.10;;;;;;5031550;28;20430;-71
2023/04/13 08:57:48;;;;;;;4.43;1.70;;;13.60;24.60;;;;;;5032392;28;20979;-73
2023/04/13 09:00:16;;;;;;;1.97;1.27;;;13.70;25.50;;;;;;5003541;28;20535;-73
2023/04/13 09:02:53;;;;;;;2.30;1.43;;;13.30;25.70;;;;;;5012336;28;20488;-72
2023/04/13 09:05:21;;;;;;;1.90;1.20;;;13.00;25.60;;;;;;5012131;28;20423;-73
2023/04/13 09:07:52;;;;;;;1.90;1.20;;;13.50;24.20;;;;;;5011944;28;20416;-73
2023/04/13 09:10:19;;;;;;;1.90;1.20;;;14.00;24.40;;;;;;5010776;28;20465;-73
2023/04/13 09:12:45;;;;;;;1.90;1.30;;;14.00;23.90;;;;;;5023511;28;20894;-72
2023/04/13 09:15:16;;;;;;;1.87;1.13;;;13.80;23.70;;;;;;5031849;28;20405;-73
2023/04/13 09:17:42;;;;;;;1.90;1.30;;;13.20;25.70;;;;;;5034117;28;20449;-73
2023/04/13 09:20:22;;;;;;;2.10;1.20;;;13.30;25.10;;;;;;5022899;28;20515;-73
2023/04/13 09:22:51;;;;;;;2.00;1.30;;;13.70;25.10;;;;;;5006193;28;20466;-71
2023/04/13 09:25:21;;;;;;;1.90;1.20;;;13.70;27.10;;;;;;5023297;28;20411;-72
2023/04/13 09:27:47;;;;;;;1.90;1.30;;;14.30;24.40;;;;;;5031798;28;20423;-73
2023/04/13 09:30:14;;;;;;;2.00;1.30;;;14.00;24.10;;;;;;5031571;28;20413;-70
2023/04/13 09:32:39;;;;;;;2.17;1.43;;;13.50;25.90;;;;;;5021842;28;20858;-71
2023/04/13 09:35:07;;;;;;;1.90;1.20;;;13.40;27.00;;;;;;5029913;28;20429;-70
2023/04/13 09:37:46;;;;;;;1.93;1.20;;;13.30;25.60;;;;;;5045933;28;20193;-70
2023/04/13 09:40:17;;;;;;;1.80;1.20;;;13.70;25.20;;;;;;5047785;28;20394;-71
2023/04/13 09:42:57;;;;;;;1.90;1.30;;;13.90;25.60;;;;;;5030180;28;20734;-71
2023/04/13 09:45:23;;;;;;;1.90;1.23;;;14.10;24.80;;;;;;5014104;28;20835;-71
2023/04/13 09:47:51;;;;;;;2.00;1.33;;;14.40;23.90;;;;;;5024085;28;20878;-73
2023/04/13 09:50:26;;;;;;;1.90;1.30;;;14.20;23.40;;;;;;5031441;28;20467;-73
2023/04/13 09:53:03;;;;;;;2.00;1.40;;;14.70;23.30;;;;;;5031752;28;20421;-74
2023/04/13 09:55:33;;;;;;;1.93;1.30;;;14.90;22.30;;;;;;5012506;28;20455;-73
2023/04/13 09:58:17;;;;;;;1.90;1.20;;;14.40;23.30;;;;;;5022694;28;20455;-73
2023/04/13 10:00:45;;;;;;;2.40;1.50;;;14.20;22.90;;;;;;5031082;28;20424;-73
2023/04/13 10:03:15;;;;;;;1.90;1.20;;;14.10;22.90;;;;;;5030975;28;20415;-73
2023/04/13 10:05:41;;;;;;;2.83;1.73;;;14.40;22.00;;;;;;5015225;28;20441;-72
2023/04/13 10:08:08;;;;;;;1.90;1.10;;;14.30;21.60;;;;;;5018862;28;20588;-73
2023/04/13 10:10:35;;;;;;;1.90;1.20;;;14.30;22.90;;;;;;5026890;28;20929;-72
2023/04/13 10:13:11;;;;;;;2.00;1.30;;;14.60;21.40;;;;;;5034850;28;20460;-73
2023/04/13 10:15:40;;;;;;;1.90;1.30;;;14.50;22.00;;;;;;5021902;28;20439;-74
2023/04/13 10:18:39;;;;;;;1.90;1.23;;;14.40;22.60;;;;;;5020784;28;20482;-73
2023/04/13 10:21:06;;;;;;;1.80;1.23;;;14.20;22.70;;;;;;5025286;28;20406;-73
2023/04/13 10:23:32;;;;;;;1.90;1.20;;;14.50;23.50;;;;;;5034581;28;20407;-73
2023/04/13 10:26:02;;;;;;;1.90;1.20;;;13.60;22.90;;;;;;5027092;28;20438;-72
2023/04/13 10:28:28;;;;;;;2.00;1.33;;;12.00;28.00;;;;;;5019841;28;20208;-73
2023/04/13 10:30:54;;;;;;;2.13;1.30;;;10.60;32.50;;;;;;5022539;28;20413;-73
2023/04/13 10:33:20;;;;;;;2.10;1.20;;;9.70;41.30;;;;;;5031883;28;20450;-73
2023/04/13 10:36:00;;;;;;;2.03;1.17;;;9.80;43.40;;;;;;5034897;28;20168;-73
2023/04/13 10:38:26;;;;;;;2.10;1.20;;;11.10;41.60;;;;;;5034457;28;20462;-73
2023/04/13 10:40:52;;;;;;;2.10;1.20;;;10.30;40.30;;;;;;5020573;28;20435;-73
2023/04/13 10:43:44;;;;;;;2.10;1.27;;;11.60;34.10;;;;;;5025785;28;20403;-73
2023/04/13 10:46:15;;;;;;;2.00;1.23;;;12.60;32.00;;;;;;5026190;28;20526;-73
2023/04/13 10:48:41;;;;;;;1.93;1.10;;;13.50;29.90;;;;;;5025980;28;20469;-73
2023/04/13 10:51:06;;;;;;;2.00;1.10;;;14.00;28.60;;;;;;5034452;28;20496;-73
2023/04/13 10:53:33;;;;;;;2.93;1.50;;;14.50;25.10;;;;;;5034117;28;20545;-73
2023/04/13 10:56:00;;;;;;;2.00;1.20;;;14.10;27.60;;;;;;5032249;28;20189;-72
2023/04/13 10:58:28;;;;;;;2.00;1.23;;;14.10;28.40;;;;;;5004600;28;20467;-73
2023/04/13 11:00:53;;;;;;;2.00;1.30;;;13.90;26.70;;;;;;5003103;28;20434;-73
2023/04/13 11:03:19;;;;;;;2.10;1.40;;;12.80;28.20;;;;;;5001350;28;20432;-73
2023/04/13 11:05:47;;;;;;;2.00;1.30;;;12.00;30.00;;;;;;5006949;28;20851;-72
2023/04/13 11:08:20;;;;;;;2.13;1.40;;;11.50;32.10;;;;;;5006065;28;20453;-71
2023/04/13 11:10:53;;;;;;;2.20;1.40;;;10.70;31.80;;;;;;5000709;28;20436;-72
2023/04/13 11:13:19;;;;;;;2.73;1.47;;;10.50;36.20;;;;;;5004672;28;20432;-72
2023/04/13 11:15:46;;;;;;;2.00;1.20;;;10.80;36.90;;;;;;5001280;28;20461;-73
2023/04/13 11:18:12;;;;;;;2.03;1.23;;;11.70;36.90;;;;;;5007344;28;20476;-74
2023/04/13 11:20:40;;;;;;;2.00;1.20;;;12.70;35.40;;;;;;5002614;28;20426;-73
2023/04/13 11:23:14;;;;;;;1.97;1.23;;;14.20;32.60;;;;;;5000067;28;20206;-72
2023/04/13 11:25:57;;;;;;;2.00;1.40;;;14.90;29.00;;;;;;5012336;28;20427;-73
2023/04/13 11:28:23;;;;;;;2.30;1.50;;;15.90;25.90;;;;;;5002112;28;20457;-73
2023/04/13 11:30:54;;;;;;;2.10;1.40;;;15.50;25.30;;;;;;4997088;28;20479;-73
2023/04/13 11:33:25;;;;;;;1.90;1.20;;;15.40;23.80;;;;;;5000003;28;20440;-72
2023/04/13 11:35:52;;;;;;;2.00;1.33;;;15.80;27.20;;;;;;4995725;28;20590;-72
2023/04/13 11:38:19;;;;;;;1.90;1.23;;;15.00;24.30;;;;;;5002003;28;20556;-73
2023/04/13 11:40:46;;;;;;;2.90;1.40;;;14.50;24.90;;;;;;5001202;28;20462;-72
2023/04/13 11:43:16;;;;;;;1.90;1.20;;;14.70;23.90;;;;;;5004757;28;20428;-74
2023/04/13 11:45:42;;;;;;;1.90;1.30;;;14.90;24.70;;;;;;5001855;28;20430;-74
2023/04/13 11:48:08;;;;;;;2.20;1.70;;;14.90;24.40;;;;;;4995990;28;20957;-75
2023/04/13 11:50:39;;;;;;;1.90;1.30;;;15.20;24.00;;;;;;5003040;28;20436;-75
2023/04/13 11:53:05;;;;;;;2.47;1.33;;;15.20;22.50;;;;;;5008789;28;20713;-74
2023/04/13 11:55:32;;;;;;;1.90;1.23;;;14.40;23.70;;;;;;4998360;28;20430;-74
2023/04/13 11:57:58;;;;;;;2.10;1.40;;;14.20;23.70;;;;;;5001237;28;20602;-74
2023/04/13 12:00:25;;;;;;;2.00;1.30;;;13.90;24.30;;;;;;5002706;28;20524;-74
2023/04/13 12:02:52;;;;;;;1.90;1.23;;;14.30;24.40;;;;;;5012791;28;20458;-76
2023/04/13 12:05:25;;;;;;;2.00;1.50;;;14.70;23.20;;;;;;5012973;28;20413;-73
2023/04/13 12:07:55;;;;;;;2.00;1.40;;;13.80;24.10;;;;;;5007299;28;20447;-78
2023/04/13 12:10:26;;;;;;;1.90;1.30;;;11.50;20.80;;;;;;5009050;28;20436;-76
2023/04/13 12:13:05;;;;;;;1.90;1.30;;;15.00;22.40;;;;;;5002241;28;20430;-71
2023/04/13 12:15:38;;;;;;;2.00;1.30;;;15.70;22.90;;;;;;5001503;28;20438;-76
2023/04/13 12:18:04;;;;;;;2.00;1.30;;;16.30;20.70;;;;;;5000397;28;20476;-75
2023/04/13 12:20:38;;;;;;;2.10;1.30;;;17.40;18.80;;;;;;4998620;28;20428;-72
2023/04/13 12:23:23;;;;;;;2.20;1.30;;;16.10;20.50;;;;;;5007550;28;20422;-74
2023/04/13 12:26:04;;;;;;;2.10;1.30;;;16.80;19.30;;;;;;4999178;28;20426;-75
2023/04/13 12:28:35;;;;;;;2.20;1.30;;;17.00;19.40;;;;;;5001420;28;20813;-74
2023/04/13 12:31:11;;;;;;;2.80;1.43;;;17.70;20.50;;;;;;4996541;28;20791;-73
2023/04/13 12:33:37;;;;;;;2.73;1.30;;;19.90;16.60;;;;;;5002871;28;20519;-76
2023/04/13 12:36:09;;;;;;;2.90;1.30;;;21.10;14.60;;;;;;5012042;28;20436;-77
2023/04/13 12:38:36;;;;;;;3.00;1.40;;;20.40;17.60;;;;;;5009862;28;20463;-73
2023/04/13 12:41:01;;;;;;;2.83;1.30;;;17.20;18.40;;;;;;4999762;28;20437;-72
2023/04/13 12:43:28;;;;;;;2.40;1.30;;;15.30;20.30;;;;;;5005746;28;20825;-75
2023/04/13 12:45:54;;;;;;;2.10;1.30;;;13.10;26.60;;;;;;4997852;28;20266;-74
2023/04/13 12:48:21;;;;;;;2.10;1.30;;;11.30;33.10;;;;;;5010250;28;20461;-73
2023/04/13 12:50:47;;;;;;;7.30;2.90;;;10.80;40.60;;;;;;4997500;28;20467;-73